Time;durP1;ratioP1;P1;durP2;ratioP2;P2;SDS_P1;SDS_P2;PMS_P1;PMS_P2;Temp;Humidity;BMP_temperature;BMP_pressure;BME280_temperature;BME280_humidity;BME280_pressure;Samples;Min_cycle;Max_cycle;Signal;HPM_P1;HPM_P2
2023/06/01 00:00:09;;;;;;;4.50;2.47;;;24.80;54.60;;;;;;4964386;28;20463;-69
2023/06/01 00:02:41;;;;;;;3.10;2.80;;;24.80;54.50;;;;;;4961147;28;20473;-68
2023/06/01 00:05:10;;;;;;;2.80;2.50;;;24.80;54.70;;;;;;4953754;28;20462;-69
2023/06/01 00:07:38;;;;;;;3.03;2.27;;;24.80;54.70;;;;;;4964429;28;20807;-69
2023/06/01 00:10:07;;;;;;;2.73;2.53;;;24.80;54.50;;;;;;4948567;28;20608;-69
2023/06/01 00:12:35;;;;;;;2.70;2.30;;;24.80;54.50;;;;;;4964272;28;20481;-69
2023/06/01 00:15:04;;;;;;;3.77;2.70;;;24.80;54.50;;;;;;4965557;28;21034;-69
2023/06/01 00:17:33;;;;;;;2.93;2.60;;;24.80;54.50;;;;;;4962713;28;20482;-68
2023/06/01 00:20:07;;;;;;;3.13;2.83;;;24.80;54.60;;;;;;4949504;29;20486;-68
2023/06/01 00:22:38;;;;;;;2.63;2.37;;;24.80;54.60;;;;;;4964607;28;20470;-68
2023/06/01 00:25:07;;;;;;;3.03;2.50;;;24.80;54.70;;;;;;4963965;28;21155;-68
2023/06/01 00:27:36;;;;;;;2.53;2.33;;;24.80;54.70;;;;;;4964655;28;20469;-69
2023/06/01 00:30:05;;;;;;;3.00;2.50;;;24.80;54.80;;;;;;4964830;28;20450;-69
2023/06/01 00:32:34;;;;;;;2.93;2.20;;;24.80;54.80;;;;;;4964359;28;20537;-69
2023/06/01 00:35:04;;;;;;;3.07;2.80;;;24.80;54.80;;;;;;4964429;28;20471;-69
2023/06/01 00:37:32;;;;;;;3.73;2.97;;;24.80;54.90;;;;;;4964784;28;21030;-69
2023/06/01 00:40:01;;;;;;;2.93;2.67;;;24.80;54.70;;;;;;4924479;29;20455;-69
2023/06/01 00:42:30;;;;;;;3.03;2.77;;;24.80;54.60;;;;;;4956850;28;20482;-69
2023/06/01 00:44:59;;;;;;;3.27;2.97;;;24.80;55.80;;;;;;4945931;28;20574;-69
2023/06/01 00:47:28;;;;;;;7.30;2.50;;;24.80;54.50;;;;;;4948969;29;20542;-69
2023/06/01 00:49:56;;;;;;;3.03;2.57;;;24.70;54.50;;;;;;4947603;28;20498;-68
2023/06/01 00:52:26;;;;;;;2.80;2.60;;;24.70;54.50;;;;;;4963733;28;20540;-69
2023/06/01 00:54:54;;;;;;;4.03;2.43;;;24.70;54.50;;;;;;4947717;28;20941;-68
2023/06/01 00:57:26;;;;;;;3.20;2.70;;;24.70;54.50;;;;;;4948845;28;20461;-70
2023/06/01 00:59:55;;;;;;;3.37;2.37;;;24.70;54.40;;;;;;4953545;28;20440;-69
2023/06/01 01:02:23;;;;;;;3.17;2.50;;;24.70;54.40;;;;;;4954991;28;20490;-69
2023/06/01 01:04:52;;;;;;;2.47;2.27;;;24.70;54.50;;;;;;4949505;29;20455;-69
2023/06/01 01:07:32;;;;;;;5.43;2.40;;;24.70;54.50;;;;;;4947979;28;20534;-69
2023/06/01 01:10:07;;;;;;;2.83;2.60;;;24.70;54.40;;;;;;4950813;28;20458;-69
2023/06/01 01:12:46;;;;;;;3.53;3.00;;;24.70;54.50;;;;;;4961995;28;21741;-69
2023/06/01 01:15:22;;;;;;;3.43;2.70;;;24.70;54.60;;;;;;4964852;28;20479;-69
2023/06/01 01:17:56;;;;;;;3.27;2.90;;;24.70;54.50;;;;;;4953538;28;20468;-69
2023/06/01 01:20:29;;;;;;;3.10;2.80;;;24.70;54.60;;;;;;4976746;28;20444;-69
2023/06/01 01:23:24;;;;;;;5.43;2.77;;;24.70;54.50;;;;;;4969137;28;20512;-69
2023/06/01 01:26:13;;;;;;;2.90;2.50;;;24.70;54.40;;;;;;4959298;28;20462;-69
2023/06/01 01:28:49;;;;;;;3.30;2.60;;;24.70;54.70;;;;;;4947270;28;20490;-69
2023/06/01 01:31:23;;;;;;;2.57;2.27;;;24.70;54.60;;;;;;4962660;28;20472;-69
2023/06/01 01:33:56;;;;;;;3.07;2.30;;;24.70;54.50;;;;;;4984023;28;20878;-69
2023/06/01 01:36:25;;;;;;;3.43;2.93;;;24.70;54.50;;;;;;4982742;28;20510;-69
2023/06/01 01:38:53;;;;;;;2.50;2.13;;;24.70;54.60;;;;;;4980594;28;20453;-69
2023/06/01 01:41:22;;;;;;;2.33;2.13;;;24.70;54.60;;;;;;4965564;28;20496;-70
2023/06/01 01:43:53;;;;;;;3.87;2.47;;;24.70;54.50;;;;;;4967142;28;20448;-69
2023/06/01 01:46:26;;;;;;;2.63;2.43;;;24.70;54.50;;;;;;4981625;28;20473;-69
2023/06/01 01:49:08;;;;;;;3.23;2.90;;;24.70;54.50;;;;;;4961462;28;20941;-69
2023/06/01 01:51:44;;;;;;;3.07;2.30;;;24.60;54.40;;;;;;4982761;28;20487;-69
2023/06/01 01:54:14;;;;;;;2.50;2.10;;;24.60;54.40;;;;;;4979657;28;20445;-69
2023/06/01 01:56:45;;;;;;;3.23;2.70;;;24.60;54.50;;;;;;4982329;28;20470;-68
2023/06/01 01:59:16;;;;;;;3.00;2.67;;;24.60;54.40;;;;;;4948398;28;20497;-69
2023/06/01 02:01:45;;;;;;;3.13;2.20;;;24.60;54.50;;;;;;4965523;28;20807;-68
2023/06/01 02:04:14;;;;;;;3.07;2.60;;;24.60;54.50;;;;;;4964902;28;20456;-68
2023/06/01 02:06:43;;;;;;;3.07;2.50;;;24.60;54.50;;;;;;4957619;28;20666;-69
2023/06/01 02:09:11;;;;;;;2.33;2.13;;;24.60;54.40;;;;;;4947236;28;20549;-68
2023/06/01 02:11:40;;;;;;;2.63;2.43;;;24.60;54.60;;;;;;4956312;28;20940;-69
2023/06/01 02:14:08;;;;;;;2.43;2.23;;;24.60;54.50;;;;;;4941344;28;20453;-69
2023/06/01 02:16:38;;;;;;;4.13;2.43;;;24.60;54.50;;;;;;4960990;28;20443;-69
2023/06/01 02:19:10;;;;;;;2.50;2.30;;;24.60;54.50;;;;;;4947424;29;20822;-69
2023/06/01 02:21:39;;;;;;;2.67;2.30;;;24.60;54.50;;;;;;4936528;29;20482;-69
2023/06/01 02:24:08;;;;;;;2.80;1.90;;;24.60;54.50;;;;;;4948890;28;20924;-69
2023/06/01 02:26:38;;;;;;;4.27;2.30;;;24.50;54.40;;;;;;4954438;28;20504;-68
2023/06/01 02:29:06;;;;;;;4.60;2.50;;;24.60;54.50;;;;;;4949435;28;20458;-69
2023/06/01 02:31:35;;;;;;;3.20;2.77;;;24.60;54.50;;;;;;4953366;28;20454;-69
2023/06/01 02:34:06;;;;;;;2.53;2.13;;;24.50;54.50;;;;;;4948429;28;20955;-68
2023/06/01 02:36:35;;;;;;;2.50;2.30;;;24.50;54.60;;;;;;4946956;28;20461;-68
2023/06/01 02:39:06;;;;;;;2.60;2.33;;;24.50;54.60;;;;;;4964043;28;20449;-68
2023/06/01 02:41:34;;;;;;;2.67;2.33;;;24.50;54.60;;;;;;4949922;28;20446;-69
2023/06/01 02:44:03;;;;;;;2.60;2.40;;;24.50;54.50;;;;;;4951741;28;20489;-69
2023/06/01 02:46:32;;;;;;;4.90;2.53;;;24.50;54.60;;;;;;4950574;28;20474;-69
2023/06/01 02:49:00;;;;;;;2.40;2.20;;;24.50;54.80;;;;;;4955494;28;20431;-68
2023/06/01 02:51:31;;;;;;;3.97;2.30;;;24.50;54.50;;;;;;4949109;29;20544;-68
2023/06/01 02:54:24;;;;;;;2.63;2.30;;;24.50;54.90;;;;;;4946410;28;20811;-68
2023/06/01 02:56:54;;;;;;;3.77;2.63;;;24.50;54.90;;;;;;4963132;28;20478;-69
2023/06/01 02:59:22;;;;;;;2.40;2.10;;;24.50;54.90;;;;;;4951505;29;20434;-69
2023/06/01 03:02:01;;;;;;;3.23;2.90;;;24.50;55.10;;;;;;4947995;28;20890;-69
2023/06/01 03:04:32;;;;;;;2.63;2.43;;;24.50;54.90;;;;;;4947279;28;20511;-69
2023/06/01 03:07:03;;;;;;;2.57;2.23;;;24.50;54.70;;;;;;4949951;28;20471;-68
2023/06/01 03:09:48;;;;;;;2.43;2.23;;;24.50;54.80;;;;;;4955063;28;20469;-69
2023/06/01 03:12:38;;;;;;;2.93;2.20;;;24.50;54.90;;;;;;4962662;28;20482;-68
2023/06/01 03:15:07;;;;;;;2.30;1.90;;;24.40;55.10;;;;;;4945977;28;20470;-69
2023/06/01 03:17:35;;;;;;;3.57;2.57;;;24.40;55.20;;;;;;4945606;28;20468;-68
2023/06/01 03:20:14;;;;;;;2.53;2.33;;;24.40;55.20;;;;;;4947279;28;20443;-69
2023/06/01 03:22:45;;;;;;;2.57;2.37;;;24.40;55.00;;;;;;4960361;28;20577;-69
2023/06/01 03:25:14;;;;;;;2.30;2.10;;;24.40;55.00;;;;;;4960711;28;20471;-69
2023/06/01 03:27:42;;;;;;;4.20;2.93;;;24.40;55.10;;;;;;4961692;28;20466;-69
2023/06/01 03:30:11;;;;;;;3.30;2.60;;;24.40;55.00;;;;;;4947344;28;20971;-69
2023/06/01 03:32:44;;;;;;;2.43;2.03;;;24.40;55.00;;;;;;4951271;28;20475;-69
2023/06/01 03:35:15;;;;;;;2.60;2.10;;;24.40;55.30;;;;;;4948205;28;20895;-69
2023/06/01 03:37:46;;;;;;;3.20;2.17;;;24.40;55.40;;;;;;4945203;28;20536;-69
2023/06/01 03:40:18;;;;;;;2.67;2.47;;;24.40;55.40;;;;;;4945268;29;21194;-69
2023/06/01 03:42:48;;;;;;;3.47;2.60;;;24.40;55.40;;;;;;4946798;28;21033;-69
2023/06/01 03:45:17;;;;;;;4.00;3.00;;;24.30;55.40;;;;;;4951093;29;20463;-68
2023/06/01 03:47:45;;;;;;;2.80;2.60;;;24.30;55.40;;;;;;4957689;28;20835;-69
2023/06/01 03:50:14;;;;;;;4.60;3.20;;;24.40;55.50;;;;;;4969323;28;20533;-69
2023/06/01 03:52:43;;;;;;;3.23;2.70;;;24.30;55.50;;;;;;4973193;28;20482;-69
2023/06/01 03:55:14;;;;;;;3.70;3.20;;;24.30;55.70;;;;;;4965306;28;20485;-69
2023/06/01 03:58:04;;;;;;;2.83;2.63;;;24.30;55.60;;;;;;4979823;28;20495;-69
2023/06/01 04:00:36;;;;;;;3.27;2.73;;;24.30;55.40;;;;;;4986103;28;20444;-69
2023/06/01 04:03:06;;;;;;;3.97;2.97;;;24.30;55.40;;;;;;4951350;28;20474;-69
2023/06/01 04:05:36;;;;;;;3.67;3.20;;;24.30;55.30;;;;;;4966629;28;20457;-69
2023/06/01 04:08:05;;;;;;;3.57;2.90;;;24.30;55.40;;;;;;4982196;28;20556;-68
2023/06/01 04:10:36;;;;;;;2.90;2.60;;;24.30;55.40;;;;;;4968995;28;20574;-69
2023/06/01 04:13:05;;;;;;;3.57;3.27;;;24.30;55.40;;;;;;4960497;28;20895;-69
2023/06/01 04:15:33;;;;;;;2.43;2.20;;;24.30;55.50;;;;;;4958383;28;20457;-69
2023/06/01 04:18:03;;;;;;;4.17;3.40;;;24.30;55.60;;;;;;4955793;28;20496;-68
2023/06/01 04:20:50;;;;;;;3.13;2.80;;;24.30;55.70;;;;;;4966803;28;20925;-69
2023/06/01 04:23:20;;;;;;;3.13;2.33;;;24.30;55.70;;;;;;4957187;28;20483;-69
2023/06/01 04:25:51;;;;;;;3.70;2.87;;;24.30;55.80;;;;;;4955956;28;20476;-69
2023/06/01 04:28:20;;;;;;;3.60;3.30;;;24.30;55.80;;;;;;4966734;28;20466;-69
2023/06/01 04:30:51;;;;;;;3.53;2.70;;;24.20;55.60;;;;;;4950020;28;20972;-69
2023/06/01 04:33:20;;;;;;;3.57;2.80;;;24.20;55.70;;;;;;4976157;28;20504;-69
2023/06/01 04:35:48;;;;;;;3.23;2.93;;;24.20;55.60;;;;;;4987717;28;20481;-69
2023/06/01 04:38:18;;;;;;;3.33;3.00;;;24.20;55.70;;;;;;4969581;28;20537;-69
2023/06/01 04:40:49;;;;;;;3.60;3.30;;;24.20;55.90;;;;;;4957404;29;20445;-69
2023/06/01 04:43:18;;;;;;;2.67;2.47;;;24.20;55.80;;;;;;4964156;28;20510;-69
2023/06/01 04:45:47;;;;;;;3.60;3.30;;;24.20;55.90;;;;;;4957924;28;20468;-69
2023/06/01 04:48:16;;;;;;;4.40;2.90;;;24.20;55.80;;;;;;4947049;28;21053;-69
2023/06/01 04:50:53;;;;;;;3.30;2.67;;;24.10;55.80;;;;;;4954508;28;20508;-69
2023/06/01 04:53:21;;;;;;;2.90;2.57;;;24.20;55.90;;;;;;4946189;28;21037;-67
2023/06/01 04:55:51;;;;;;;3.77;2.30;;;24.20;56.00;;;;;;4949780;29;20477;-69
2023/06/01 04:58:20;;;;;;;3.63;3.30;;;24.20;56.10;;;;;;4962945;28;20475;-69
2023/06/01 05:00:48;;;;;;;2.80;2.30;;;24.10;55.90;;;;;;4965541;28;20441;-69
2023/06/01 05:03:17;;;;;;;3.67;3.37;;;24.20;55.90;;;;;;4948765;28;20484;-69
2023/06/01 05:05:45;;;;;;;3.60;3.30;;;24.10;55.90;;;;;;4965500;28;20821;-69
2023/06/01 05:08:15;;;;;;;3.37;3.07;;;24.10;56.00;;;;;;4930835;28;21012;-69
2023/06/01 05:10:43;;;;;;;3.60;3.13;;;24.20;56.10;;;;;;4948782;29;20438;-69
2023/06/01 05:13:13;;;;;;;2.47;2.27;;;24.10;56.10;;;;;;4949136;28;20555;-69
2023/06/01 05:15:42;;;;;;;3.50;3.20;;;24.10;56.20;;;;;;4955160;28;20467;-69
2023/06/01 05:18:11;;;;;;;4.00;3.67;;;24.10;56.30;;;;;;4948236;28;21073;-69
2023/06/01 05:20:39;;;;;;;3.10;2.80;;;24.10;55.90;;;;;;4948688;28;20429;-69
2023/06/01 05:23:08;;;;;;;3.13;2.83;;;24.10;56.00;;;;;;4943705;28;20508;-69
2023/06/01 05:25:37;;;;;;;4.77;3.03;;;24.10;56.20;;;;;;4954941;28;20565;-69
2023/06/01 05:28:06;;;;;;;4.90;3.90;;;24.10;56.00;;;;;;4969029;28;20470;-68
2023/06/01 05:30:36;;;;;;;4.70;3.73;;;24.10;56.00;;;;;;4967887;28;20942;-69
2023/06/01 05:33:05;;;;;;;3.27;2.97;;;24.10;56.10;;;;;;4968053;28;20480;-69
2023/06/01 05:35:34;;;;;;;5.17;4.30;;;24.10;56.30;;;;;;4948836;29;20459;-68
2023/06/01 05:38:08;;;;;;;3.50;3.20;;;24.10;56.20;;;;;;4960218;28;20619;-68
2023/06/01 05:40:36;;;;;;;4.50;3.23;;;24.10;56.30;;;;;;4945418;29;21050;-69
2023/06/01 05:43:07;;;;;;;2.67;2.47;;;24.10;56.40;;;;;;4962204;28;20486;-69
2023/06/01 05:45:37;;;;;;;8.90;5.37;;;24.10;56.60;;;;;;4962315;28;20457;-69
2023/06/01 05:48:06;;;;;;;4.60;4.10;;;24.10;56.20;;;;;;4963792;28;20540;-69
2023/06/01 05:50:35;;;;;;;4.43;4.00;;;24.10;56.40;;;;;;4961202;28;20486;-70
2023/06/01 05:53:03;;;;;;;6.80;5.50;;;24.10;56.30;;;;;;4940716;28;20828;-68
2023/06/01 05:55:32;;;;;;;6.60;5.70;;;24.10;56.10;;;;;;4946713;29;20555;-68
2023/06/01 05:58:00;;;;;;;6.87;5.63;;;24.10;56.20;;;;;;4959442;28;20569;-68
2023/06/01 06:00:29;;;;;;;6.70;6.00;;;24.00;56.00;;;;;;4982914;28;20822;-68
2023/06/01 06:03:00;;;;;;;6.33;5.63;;;24.10;56.30;;;;;;4953848;28;20870;-68
2023/06/01 06:05:29;;;;;;;8.90;6.77;;;24.00;56.00;;;;;;4948521;29;20720;-69
2023/06/01 06:07:57;;;;;;;5.57;5.07;;;24.00;56.00;;;;;;4947170;28;20483;-69
2023/06/01 06:10:25;;;;;;;7.00;6.30;;;24.00;56.00;;;;;;4962679;28;20450;-68
2023/06/01 06:12:55;;;;;;;4.90;4.40;;;24.00;56.00;;;;;;4951294;28;20484;-67
2023/06/01 06:15:23;;;;;;;5.47;4.70;;;24.00;56.20;;;;;;4947297;28;20484;-67
2023/06/01 06:17:52;;;;;;;6.17;5.57;;;24.00;56.30;;;;;;4946755;28;20527;-68
2023/06/01 06:20:22;;;;;;;5.37;4.83;;;24.00;56.40;;;;;;4963882;28;20455;-67
2023/06/01 06:22:51;;;;;;;4.90;4.50;;;24.00;56.40;;;;;;4947305;28;20480;-68
2023/06/01 06:25:21;;;;;;;5.33;4.83;;;24.00;56.60;;;;;;4944845;29;20569;-69
2023/06/01 06:27:49;;;;;;;8.30;7.50;;;24.00;56.60;;;;;;4962623;28;20490;-69
2023/06/01 06:30:18;;;;;;;9.90;7.97;;;24.00;56.20;;;;;;4947990;29;20485;-68
2023/06/01 06:32:46;;;;;;;9.83;8.10;;;24.00;56.30;;;;;;4946578;28;20495;-69
2023/06/01 06:35:14;;;;;;;6.67;6.07;;;23.90;56.00;;;;;;4983047;28;20479;-68
2023/06/01 06:37:44;;;;;;;8.40;6.23;;;23.90;56.30;;;;;;4980807;28;20485;-68
2023/06/01 06:40:13;;;;;;;8.00;6.90;;;23.90;56.40;;;;;;4961115;28;20455;-69
2023/06/01 06:42:42;;;;;;;10.10;7.20;;;23.90;56.40;;;;;;4975497;28;20461;-68
2023/06/01 06:45:11;;;;;;;6.33;5.73;;;23.90;56.30;;;;;;4962903;28;20472;-68
2023/06/01 06:47:41;;;;;;;9.10;8.20;;;23.90;56.50;;;;;;4963617;28;20482;-68
2023/06/01 06:50:11;;;;;;;6.10;5.50;;;23.90;56.40;;;;;;4974975;28;20446;-68
2023/06/01 06:52:40;;;;;;;6.27;5.70;;;23.90;56.70;;;;;;4971896;28;20473;-69
2023/06/01 06:55:10;;;;;;;6.17;5.57;;;23.90;56.70;;;;;;4948908;28;21090;-68
2023/06/01 06:57:40;;;;;;;5.80;5.20;;;23.90;56.80;;;;;;4962009;28;21022;-67
2023/06/01 07:00:14;;;;;;;6.57;5.20;;;23.90;57.00;;;;;;4949164;28;20437;-69
2023/06/01 07:02:44;;;;;;;5.57;5.07;;;23.80;56.90;;;;;;4961546;28;20484;-68
2023/06/01 07:05:13;;;;;;;6.23;5.63;;;23.90;57.00;;;;;;4956133;28;20455;-67
2023/06/01 07:07:42;;;;;;;6.07;5.47;;;23.90;57.00;;;;;;4952919;28;21213;-68
2023/06/01 07:10:12;;;;;;;5.60;5.10;;;23.90;57.20;;;;;;4948489;28;20826;-68
2023/06/01 07:12:41;;;;;;;6.63;6.03;;;23.80;57.10;;;;;;4959159;28;20965;-68
2023/06/01 07:15:10;;;;;;;8.20;7.03;;;23.90;57.20;;;;;;4950780;29;20855;-68
2023/06/01 07:17:38;;;;;;;7.77;6.97;;;23.80;57.00;;;;;;4947286;28;20514;-69
2023/06/01 07:20:11;;;;;;;11.00;9.20;;;23.80;57.20;;;;;;4950923;28;20445;-67
2023/06/01 07:22:40;;;;;;;9.37;8.47;;;23.80;57.00;;;;;;4950077;28;20481;-69
2023/06/01 07:25:12;;;;;;;8.03;7.23;;;23.80;57.00;;;;;;4962567;28;20573;-69
2023/06/01 07:27:43;;;;;;;8.40;7.27;;;23.80;57.10;;;;;;4965597;28;20666;-70
2023/06/01 07:30:12;;;;;;;7.40;6.70;;;23.80;57.10;;;;;;4953295;28;20454;-68
2023/06/01 07:32:41;;;;;;;7.60;6.90;;;23.80;57.20;;;;;;4956623;28;20506;-67
2023/06/01 07:35:10;;;;;;;12.60;10.00;;;23.80;57.20;;;;;;4966409;28;20583;-67
2023/06/01 07:37:38;;;;;;;7.70;7.00;;;23.80;57.20;;;;;;4963156;28;20483;-68
2023/06/01 07:40:08;;;;;;;12.53;10.40;;;23.80;57.10;;;;;;4960507;28;20460;-68
2023/06/01 07:42:38;;;;;;;10.90;9.20;;;23.80;57.20;;;;;;4949181;29;20478;-68
2023/06/01 07:45:09;;;;;;;13.23;10.30;;;23.70;56.80;;;;;;4949246;29;20466;-69
2023/06/01 07:47:38;;;;;;;10.83;8.90;;;23.70;56.80;;;;;;4959398;28;20487;-67
2023/06/01 07:50:08;;;;;;;12.57;10.60;;;23.70;57.00;;;;;;4948757;29;20457;-67
2023/06/01 07:52:38;;;;;;;12.23;10.03;;;23.70;56.90;;;;;;4949904;28;20513;-69
2023/06/01 07:55:08;;;;;;;13.03;11.47;;;23.70;56.80;;;;;;4960736;28;20974;-68
2023/06/01 07:57:39;;;;;;;13.80;11.23;;;23.70;56.70;;;;;;4957017;28;20543;-72
2023/06/01 08:00:12;;;;;;;10.43;9.30;;;23.70;56.70;;;;;;4964818;28;21196;-71
2023/06/01 08:02:41;;;;;;;11.77;9.77;;;23.70;56.90;;;;;;4956527;28;20454;-72
2023/06/01 08:05:11;;;;;;;11.50;10.30;;;23.70;57.00;;;;;;4948945;29;20915;-71
2023/06/01 08:07:40;;;;;;;12.63;11.03;;;23.70;57.00;;;;;;4949413;28;20502;-71
2023/06/01 08:10:09;;;;;;;10.70;9.23;;;23.70;56.80;;;;;;4959330;28;20553;-71
2023/06/01 08:12:39;;;;;;;14.50;12.23;;;23.70;57.00;;;;;;4962090;28;20461;-71
2023/06/01 08:15:08;;;;;;;12.47;10.70;;;23.70;56.70;;;;;;4966685;28;20489;-72
2023/06/01 08:17:37;;;;;;;17.00;13.33;;;23.60;56.80;;;;;;4949505;29;20457;-70
2023/06/01 08:20:10;;;;;;;16.00;12.37;;;23.60;56.70;;;;;;4951174;28;20571;-71
2023/06/01 08:22:41;;;;;;;16.73;14.00;;;23.60;56.70;;;;;;4950794;28;20820;-72
2023/06/01 08:25:10;;;;;;;13.30;11.90;;;23.60;56.50;;;;;;4948443;28;20541;-71
2023/06/01 08:27:40;;;;;;;15.23;12.27;;;23.60;56.60;;;;;;4955106;28;20454;-71
2023/06/01 08:30:09;;;;;;;14.50;13.00;;;23.60;56.50;;;;;;4945095;29;20825;-71
2023/06/01 08:32:38;;;;;;;17.20;15.20;;;23.60;56.40;;;;;;4946753;28;20896;-72
2023/06/01 08:35:08;;;;;;;14.80;11.77;;;23.60;56.30;;;;;;4951864;28;20562;-71
2023/06/01 08:37:37;;;;;;;14.17;12.70;;;23.60;56.50;;;;;;4945455;29;20439;-71
2023/06/01 08:40:09;;;;;;;17.63;15.73;;;23.60;56.50;;;;;;4943848;28;20463;-72
2023/06/01 08:42:47;;;;;;;17.03;14.93;;;23.60;56.30;;;;;;4950660;28;20466;-71
2023/06/01 08:45:16;;;;;;;16.80;14.30;;;23.60;56.50;;;;;;4959372;28;20482;-71
2023/06/01 08:47:46;;;;;;;13.27;11.83;;;23.60;56.40;;;;;;4948279;28;20458;-71
2023/06/01 08:50:16;;;;;;;17.50;14.83;;;23.60;56.60;;;;;;4949521;28;20481;-72
2023/06/01 08:52:46;;;;;;;14.67;13.17;;;23.60;56.20;;;;;;4944262;28;20483;-72
2023/06/01 08:55:15;;;;;;;13.17;11.53;;;23.60;56.40;;;;;;4947703;29;20474;-72
2023/06/01 08:57:45;;;;;;;18.37;13.00;;;23.60;56.70;;;;;;4953305;28;20454;-71
2023/06/01 09:00:14;;;;;;;13.50;12.20;;;23.60;56.70;;;;;;4956530;28;20513;-70
2023/06/01 09:02:44;;;;;;;13.87;12.03;;;23.60;56.50;;;;;;4942768;28;20439;-71
2023/06/01 09:05:13;;;;;;;15.97;14.23;;;23.60;56.70;;;;;;4963219;28;20480;-71
2023/06/01 09:07:41;;;;;;;16.73;13.57;;;23.60;56.60;;;;;;4946099;28;20551;-72
2023/06/01 09:10:11;;;;;;;19.07;14.80;;;23.60;56.60;;;;;;4947076;28;20471;-71
2023/06/01 09:15:51;;;;;;;16.53;13.60;;;23.60;56.60;;;;;;5346251;23;21406;-71
2023/06/01 09:18:20;;;;;;;19.50;17.07;;;23.60;56.60;;;;;;4978592;28;21055;-70
2023/06/01 09:20:49;;;;;;;15.00;13.50;;;23.60;56.40;;;;;;4968579;28;20459;-71
2023/06/01 09:23:24;;;;;;;17.60;15.83;;;23.60;56.50;;;;;;4966319;28;20481;-72
2023/06/01 09:26:05;;;;;;;17.77;15.87;;;23.60;56.10;;;;;;4982915;28;20709;-71
2023/06/01 09:28:53;;;;;;;17.00;15.30;;;23.60;56.00;;;;;;4981478;28;21144;-71
2023/06/01 09:31:41;;;;;;;14.47;12.37;;;23.60;55.90;;;;;;4965579;28;20548;-72
2023/06/01 09:34:11;;;;;;;14.53;13.07;;;23.60;56.40;;;;;;4943923;29;20470;-71
2023/06/01 09:36:39;;;;;;;14.27;12.87;;;23.60;56.60;;;;;;4947205;29;20475;-70
2023/06/01 09:39:09;;;;;;;13.80;12.40;;;23.60;56.50;;;;;;4949126;29;20440;-72
2023/06/01 09:41:52;;;;;;;18.50;14.93;;;23.60;56.60;;;;;;4944055;28;20459;-71
2023/06/01 09:44:25;;;;;;;15.47;13.80;;;23.60;56.30;;;;;;4948598;29;20448;-71
2023/06/01 09:46:57;;;;;;;33.03;27.57;;;23.60;56.40;;;;;;4944397;29;20446;-71
2023/06/01 09:49:27;;;;;;;30.97;26.10;;;23.50;48.90;;;;;;4948793;29;20462;-71
2023/06/01 09:52:12;;;;;;;37.10;32.90;;;23.50;49.30;;;;;;4949511;28;20477;-72
2023/06/01 09:54:42;;;;;;;35.23;30.30;;;23.20;47.30;;;;;;4947955;28;20515;-71
2023/06/01 09:57:12;;;;;;;33.93;28.50;;;22.80;49.20;;;;;;4948650;28;20532;-70
2023/06/01 09:59:43;;;;;;;29.33;26.33;;;22.80;50.80;;;;;;4945253;29;20507;-71
2023/06/01 10:02:18;;;;;;;29.53;26.00;;;22.80;51.30;;;;;;4940363;29;21042;-68
2023/06/01 10:04:49;;;;;;;27.07;24.23;;;22.90;51.70;;;;;;4943011;28;20467;-67
2023/06/01 10:07:19;;;;;;;27.33;24.43;;;22.90;52.00;;;;;;4945740;28;20512;-68
2023/06/01 10:09:51;;;;;;;26.17;23.37;;;23.00;52.10;;;;;;4945598;29;20477;-67
2023/06/01 10:12:20;;;;;;;27.97;24.37;;;23.00;52.10;;;;;;4948715;29;20457;-68
2023/06/01 10:14:49;;;;;;;25.60;23.07;;;23.10;52.30;;;;;;4947898;29;20888;-68
2023/06/01 10:17:20;;;;;;;26.00;23.43;;;23.20;52.70;;;;;;4943982;28;20824;-69
2023/06/01 10:19:49;;;;;;;26.27;23.43;;;23.20;52.70;;;;;;4949445;29;20456;-67
2023/06/01 10:22:18;;;;;;;25.83;22.93;;;23.20;52.70;;;;;;4948022;29;20442;-67
2023/06/01 10:24:47;;;;;;;24.90;22.43;;;23.20;52.90;;;;;;4945550;29;20474;-68
2023/06/01 10:27:21;;;;;;;23.67;21.10;;;23.20;52.90;;;;;;4945936;28;21030;-71
2023/06/01 10:29:50;;;;;;;24.60;22.20;;;23.30;53.10;;;;;;4948206;29;20458;-70
2023/06/01 10:32:45;;;;;;;25.70;22.17;;;23.30;52.90;;;;;;4942028;29;20958;-67
2023/06/01 10:36:04;;;;;;;23.40;21.00;;;23.30;53.10;;;;;;4940821;28;20503;-68
2023/06/01 10:38:33;;;;;;;23.17;21.00;;;23.30;53.40;;;;;;4961082;28;20485;-68
2023/06/01 10:41:30;;;;;;;22.80;20.37;;;23.30;53.40;;;;;;4945609;29;20454;-68
2023/06/01 10:43:59;;;;;;;23.90;21.27;;;23.30;53.30;;;;;;4946253;28;20610;-68
2023/06/01 10:46:43;;;;;;;22.37;20.00;;;23.30;53.60;;;;;;4949857;28;20475;-67
2023/06/01 10:49:14;;;;;;;23.23;21.03;;;23.30;53.50;;;;;;4941847;29;20463;-68
2023/06/01 10:51:43;;;;;;;23.10;20.13;;;23.30;53.30;;;;;;4946686;29;20541;-69
2023/06/01 10:54:40;;;;;;;23.33;21.10;;;23.30;53.30;;;;;;4945787;29;20953;-68
2023/06/01 10:57:25;;;;;;;19.90;17.80;;;23.30;53.60;;;;;;4942133;29;20472;-68
2023/06/01 11:00:17;;;;;;;22.07;19.80;;;23.30;53.50;;;;;;4948919;29;20941;-68
2023/06/01 11:02:53;;;;;;;22.20;18.77;;;23.30;53.30;;;;;;4947027;28;20599;-69
2023/06/01 11:05:46;;;;;;;22.60;20.10;;;23.30;53.20;;;;;;4947198;29;20996;-68
2023/06/01 11:09:00;;;;;;;20.43;18.40;;;23.30;53.40;;;;;;4948151;28;20491;-68
2023/06/01 11:12:02;;;;;;;20.23;18.27;;;23.30;53.70;;;;;;4929495;29;20465;-68
2023/06/01 11:14:33;;;;;;;21.77;19.57;;;23.30;53.80;;;;;;4921651;28;20560;-68
2023/06/01 11:17:28;;;;;;;21.73;19.43;;;23.30;53.80;;;;;;4949868;28;20466;-68
2023/06/01 11:20:11;;;;;;;20.27;18.27;;;23.30;53.90;;;;;;4967413;28;20452;-68
2023/06/01 11:22:41;;;;;;;19.87;17.83;;;23.30;53.80;;;;;;4967137;28;21012;-68
2023/06/01 11:25:14;;;;;;;19.23;17.43;;;23.30;53.90;;;;;;4958151;28;20475;-68
2023/06/01 11:27:46;;;;;;;21.53;19.23;;;23.30;54.00;;;;;;4965011;28;20480;-69
2023/06/01 11:30:21;;;;;;;19.47;17.50;;;23.30;54.00;;;;;;4966455;28;20458;-67
2023/06/01 11:32:53;;;;;;;20.20;17.00;;;23.30;54.00;;;;;;4955716;28;20475;-68
2023/06/01 11:35:26;;;;;;;18.50;16.70;;;23.30;53.40;;;;;;4940639;29;21075;-67
2023/06/01 11:37:59;;;;;;;19.93;18.03;;;23.30;53.50;;;;;;4948163;28;20497;-68
2023/06/01 11:40:28;;;;;;;20.27;18.27;;;23.30;53.50;;;;;;4952205;28;20796;-69
2023/06/01 11:43:02;;;;;;;19.67;17.80;;;23.30;53.70;;;;;;4940521;28;20474;-67
2023/06/01 11:45:31;;;;;;;19.10;17.17;;;23.30;53.90;;;;;;4944538;29;20821;-68
2023/06/01 11:48:10;;;;;;;18.97;17.00;;;23.30;53.30;;;;;;4953722;28;20485;-68
2023/06/01 11:50:47;;;;;;;19.67;17.60;;;23.30;53.50;;;;;;4958775;28;20437;-68
2023/06/01 11:53:17;;;;;;;18.03;16.23;;;23.30;54.00;;;;;;4951313;28;20477;-67
2023/06/01 11:55:52;;;;;;;19.10;17.10;;;23.30;53.50;;;;;;4948729;28;20465;-68
2023/06/01 11:58:25;;;;;;;17.47;15.63;;;23.30;53.90;;;;;;4952158;28;20540;-68
2023/06/01 12:00:54;;;;;;;17.57;15.93;;;23.30;54.00;;;;;;4950797;29;20451;-68
2023/06/01 12:03:24;;;;;;;18.33;16.33;;;23.30;55.40;;;;;;4948328;28;20549;-68
2023/06/01 12:05:55;;;;;;;17.33;15.57;;;23.30;54.10;;;;;;4951150;29;20446;-69
2023/06/01 12:08:28;;;;;;;18.13;16.47;;;23.30;54.10;;;;;;4948294;28;21133;-67
2023/06/01 12:10:56;;;;;;;19.13;17.13;;;23.30;54.10;;;;;;4942245;29;20827;-68
2023/06/01 12:13:25;;;;;;;16.27;14.73;;;23.30;54.00;;;;;;4949662;28;20481;-68
2023/06/01 12:15:54;;;;;;;17.53;15.80;;;23.30;53.90;;;;;;4951993;28;20835;-67
2023/06/01 12:18:30;;;;;;;18.23;16.43;;;23.30;53.90;;;;;;4950700;28;20513;-68
2023/06/01 12:21:00;;;;;;;17.87;16.03;;;23.30;54.00;;;;;;4951386;28;20453;-67
2023/06/01 12:23:30;;;;;;;16.47;14.87;;;23.30;53.90;;;;;;4947041;28;20533;-68
2023/06/01 12:25:59;;;;;;;15.23;13.83;;;23.30;54.00;;;;;;4949246;29;20461;-69
2023/06/01 12:28:33;;;;;;;15.50;14.10;;;23.30;54.10;;;;;;4948316;28;20495;-68
2023/06/01 12:31:20;;;;;;;15.53;13.93;;;23.30;53.50;;;;;;4944903;29;20697;-68
2023/06/01 12:33:49;;;;;;;17.57;15.87;;;23.40;54.00;;;;;;4949420;28;20528;-68
2023/06/01 12:36:34;;;;;;;16.50;14.80;;;23.40;53.90;;;;;;4949399;28;20517;-69
2023/06/01 12:39:05;;;;;;;17.30;15.70;;;23.40;53.70;;;;;;4942809;29;20477;-67
2023/06/01 12:41:35;;;;;;;14.97;13.57;;;23.30;54.00;;;;;;4962438;28;20446;-71
2023/06/01 12:44:03;;;;;;;16.60;15.00;;;23.40;54.00;;;;;;4949925;28;20490;-71
2023/06/01 12:46:35;;;;;;;16.00;14.50;;;23.40;54.00;;;;;;4949008;29;20479;-67
2023/06/01 12:49:14;;;;;;;16.40;14.90;;;23.40;55.30;;;;;;4952166;28;20471;-67
2023/06/01 12:51:42;;;;;;;15.73;14.13;;;23.40;53.80;;;;;;4950938;29;20513;-68
2023/06/01 12:54:12;;;;;;;15.03;13.73;;;23.40;53.80;;;;;;4948060;29;20975;-68
2023/06/01 12:56:41;;;;;;;16.20;14.70;;;23.40;54.00;;;;;;4932816;29;20465;-69
2023/06/01 12:59:10;;;;;;;16.80;15.20;;;23.40;54.00;;;;;;4945935;29;21033;-68
2023/06/01 13:01:38;;;;;;;15.47;13.93;;;23.40;54.00;;;;;;4947913;28;21077;-69
2023/06/01 13:04:08;;;;;;;15.47;13.93;;;23.40;54.10;;;;;;4948309;29;20457;-67